Terminal Aerodrome Forecast
Issued by NWS Quad Cities IA IL

Home | Current Version | Previous Version | Text Only | Print | Product List | Glossary On
Versions: 1 2 3 4 5 6 7 8 9 10 11 12 13 14 15 16 17 18 19 20 21 22 23
000
FTUS43 KDVN 270800 AAA
TAFMLI
TAF AMD
KMLI 270820Z 2708/2806 VRB03KT 6SM BR SCT025 OVC035
     FM271400 01006KT P6SM SCT015 BKN025
     FM272000 05006KT P6SM SCT030 SCT250
     FM280000 14007KT P6SM SCT250=

USA.gov is the U.S. government's official web portal to all federal, state and local government web resources and services.